Time,TemperatureF,DewpointF,PressureIn,WindDirection,WindDirectionDegrees,WindSpeedMPH,WindSpeedGustMPH,Humidity,HourlyPrecipIn,Conditions,Clouds,dailyrainin,SoftwareType,DateUTC
2013-09-03 00:12:00,62.0,58.0,30.05,SE,137,0.0,0.0,86,0.00,,,0.00,,2013-09-03 05:12:00,
2013-09-03 00:52:00,61.0,57.0,30.05,SE,136,0.0,0.0,88,0.00,,,0.00,,2013-09-03 05:52:00,
2013-09-03 01:12:00,60.0,56.0,30.05,SE,136,0.0,0.0,88,0.00,,,0.00,,2013-09-03 06:12:00,
2013-09-03 01:22:00,59.0,56.0,30.05,SE,136,0.0,0.0,89,0.00,,,0.00,,2013-09-03 06:22:00,
2013-09-03 02:12:00,59.0,56.0,30.06,SE,136,0.0,0.0,91,0.00,,,0.00,,2013-09-03 07:12:00,
2013-09-03 02:22:00,59.0,57.0,30.06,SSW,202,0.0,1.0,92,0.00,,,0.00,,2013-09-03 07:22:00,
2013-09-03 02:52:00,61.0,58.0,30.06,SSW,202,0.0,0.0,89,0.00,,,0.00,,2013-09-03 07:52:00,
2013-09-03 03:11:00,62.0,58.0,30.06,SSW,202,0.0,0.0,87,0.00,,,0.00,,2013-09-03 08:11:00,
2013-09-03 03:22:00,61.0,57.0,30.05,SSW,202,0.0,0.0,86,0.00,,,0.00,,2013-09-03 08:22:00,
2013-09-03 03:52:00,61.0,57.0,30.05,SSE,159,0.0,0.0,87,0.00,,,0.00,,2013-09-03 08:52:00,
2013-09-03 04:11:00,61.0,57.0,30.06,SSE,159,0.0,0.0,86,0.00,,,0.00,,2013-09-03 09:11:00,
2013-09-03 04:21:00,60.0,56.0,30.06,SW,221,0.0,1.0,88,0.00,,,0.00,,2013-09-03 09:21:00,
2013-09-03 04:53:00,60.0,56.0,30.06,SSW,211,0.0,2.0,87,0.00,,,0.00,,2013-09-03 09:53:00,
2013-09-03 05:23:00,59.0,55.0,30.06,SSW,211,0.0,0.0,87,0.00,,,0.00,,2013-09-03 10:23:00,
2013-09-03 05:53:00,58.0,55.0,30.07,SSW,211,0.0,0.0,89,0.00,,,0.00,,2013-09-03 10:53:00,
2013-09-03 06:12:00,57.0,53.0,30.07,SSW,211,0.0,0.0,88,0.00,,,0.00,,2013-09-03 11:12:00,
2013-09-03 06:23:00,57.0,54.0,30.07,SSW,211,0.0,0.0,90,0.00,,,0.00,,2013-09-03 11:23:00,
2013-09-03 06:52:00,56.0,53.0,30.08,SSW,211,0.0,0.0,91,0.00,,,0.00,,2013-09-03 11:52:00,
2013-09-03 07:12:00,56.0,53.0,30.08,SSW,211,0.0,0.0,91,0.00,,,0.00,,2013-09-03 12:12:00,
2013-09-03 07:21:00,55.0,52.0,30.08,SSW,211,0.0,0.0,91,0.00,,,0.00,,2013-09-03 12:21:00,
2013-09-03 07:52:00,56.0,54.0,30.09,SSW,211,0.0,0.0,92,0.00,,,0.00,,2013-09-03 12:52:00,
2013-09-03 08:11:00,56.0,54.0,30.09,SSW,211,0.0,0.0,92,0.00,,,0.00,,2013-09-03 13:11:00,
2013-09-03 08:21:00,57.0,55.0,30.10,SSW,211,0.0,0.0,93,0.00,,,0.00,,2013-09-03 13:21:00,
2013-09-03 08:52:00,61.0,59.0,30.10,SSW,211,0.0,0.0,94,0.00,,,0.00,,2013-09-03 13:52:00,
2013-09-03 09:21:00,67.0,62.0,30.10,SSW,211,0.0,0.0,83,0.00,,,0.00,,2013-09-03 14:21:00,
2013-09-03 09:52:00,71.0,62.0,30.10,South,171,0.0,3.0,74,0.00,,,0.00,,2013-09-03 14:52:00,
2013-09-03 10:22:00,74.0,63.0,30.11,SSE,168,3.0,7.0,68,0.00,,,0.00,,2013-09-03 15:22:00,
2013-09-03 10:54:00,76.0,63.0,30.11,SSW,201,3.0,12.0,64,0.00,,,0.00,,2013-09-03 15:54:00,
2013-09-03 11:14:00,77.0,63.0,30.11,SSE,163,2.0,9.0,61,0.00,,,0.00,,2013-09-03 16:14:00,
2013-09-03 11:24:00,78.0,63.0,30.11,South,171,5.0,9.0,61,0.00,,,0.00,,2013-09-03 16:24:00,
2013-09-03 11:54:00,80.0,64.0,30.11,SSE,158,1.0,7.0,59,0.00,,,0.00,,2013-09-03 16:54:00,
2013-09-03 12:23:00,81.0,63.0,30.10,SSW,195,0.0,6.0,54,0.00,,,0.00,,2013-09-03 17:23:00,
2013-09-03 12:52:00,83.0,66.0,30.09,WSW,250,0.0,7.0,57,0.00,,,0.00,,2013-09-03 17:52:00,
2013-09-03 13:22:00,84.0,64.0,30.07,South,172,4.0,9.0,51,0.00,,,0.00,,2013-09-03 18:22:00,
2013-09-03 13:52:00,85.0,66.0,30.06,SSE,153,5.0,10.0,53,0.00,,,0.00,,2013-09-03 18:52:00,
2013-09-03 14:11:00,85.0,64.0,30.06,SW,224,4.0,12.0,49,0.00,,,0.00,,2013-09-03 19:11:00,
2013-09-03 14:22:00,85.0,64.0,30.05,ESE,111,6.0,10.0,50,0.00,,,0.00,,2013-09-03 19:22:00,
2013-09-03 14:52:00,86.0,63.0,30.04,SSE,165,2.0,9.0,47,0.00,,,0.00,,2013-09-03 19:52:00,
2013-09-03 15:11:00,88.0,65.0,30.04,SSE,158,10.0,12.0,47,0.00,,,0.00,,2013-09-03 20:11:00,
2013-09-03 15:22:00,88.0,65.0,30.04,SE,144,5.0,11.0,47,0.00,,,0.00,,2013-09-03 20:22:00,
2013-09-03 15:42:00,88.0,61.0,30.03,SSE,152,0.0,7.0,41,0.00,,,0.00,,2013-09-03 20:42:00,
2013-09-03 15:52:00,88.0,63.0,30.03,SSE,160,9.0,12.0,44,0.00,,,0.00,,2013-09-03 20:52:00,
2013-09-03 16:22:00,88.0,64.0,30.01,South,173,3.0,7.0,45,0.00,,,0.00,,2013-09-03 21:22:00,
2013-09-03 18:53:00,87.0,63.0,30.00,SE,134,1.0,6.0,45,0.00,,,0.00,,2013-09-03 23:53:00,
2013-09-03 21:22:00,69.0,61.0,30.01,SSE,161,4.0,5.0,75,0.00,,,0.00,,2013-09-04 02:22:00,
2013-09-03 23:54:00,66.0,60.0,30.05,South,188,3.0,4.0,80,0.00,,,0.00,,2013-09-04 04:54:00,